createdAt,value
2024-05-09T00:00:57.877Z,964.46
2024-05-09T00:03:57.724Z,964.33
2024-05-09T00:06:57.052Z,964.28
2024-05-09T00:09:58.006Z,964.36
2024-05-09T00:12:57.405Z,964.42
2024-05-09T00:15:58.669Z,964.36
2024-05-09T00:18:57.553Z,964.36
2024-05-09T00:21:58.102Z,964.39
2024-05-09T00:24:57.765Z,964.3
2024-05-09T00:27:58.398Z,964.28
2024-05-09T00:30:57.935Z,964.23
2024-05-09T00:33:57.948Z,964.22
2024-05-09T00:36:57.777Z,964.2
2024-05-09T00:39:57.797Z,964.22
2024-05-09T00:42:57.253Z,964.2
2024-05-09T00:45:57.677Z,964.25
2024-05-09T00:48:57.298Z,964.18
2024-05-09T00:51:57.429Z,964.19
2024-05-09T00:54:57.252Z,964.23
2024-05-09T00:57:58.327Z,964.37
2024-05-09T01:00:57.768Z,964.26
2024-05-09T01:03:57.940Z,964.23
2024-05-09T01:06:57.303Z,964.26
2024-05-09T01:09:57.222Z,964.29
2024-05-09T01:12:57.520Z,964.23
2024-05-09T01:15:57.283Z,964.25
2024-05-09T01:18:57.447Z,964.23
2024-05-09T01:21:58.036Z,964.19
2024-05-09T01:24:57.709Z,964.21
2024-05-09T01:27:57.510Z,964.19
2024-05-09T01:30:57.850Z,964.21
2024-05-09T01:33:57.982Z,964.23
2024-05-09T01:36:57.042Z,964.18
2024-05-09T01:39:57.697Z,964.25
2024-05-09T01:42:56.726Z,964.16
2024-05-09T01:45:57.693Z,964.19
2024-05-09T01:48:57.784Z,964.16
2024-05-09T01:51:57.228Z,964.19
2024-05-09T01:54:57.589Z,964.15
2024-05-09T01:57:58.406Z,964.06
2024-05-09T02:00:58.341Z,964.15
2024-05-09T02:03:57.867Z,964.05
2024-05-09T02:06:57.439Z,964.09
2024-05-09T02:09:57.535Z,963.95
2024-05-09T02:12:57.840Z,964.04
2024-05-09T02:15:57.323Z,964.07
2024-05-09T02:18:58.429Z,964.05
2024-05-09T02:21:57.204Z,964.05
2024-05-09T02:24:57.335Z,964.11
2024-05-09T02:27:57.962Z,964.05
2024-05-09T02:30:57.484Z,964.15
2024-05-09T02:33:57.171Z,964.21
2024-05-09T02:36:57.373Z,964.17
2024-05-09T02:39:57.996Z,964.2
2024-05-09T02:42:57.225Z,964.17
2024-05-09T02:45:57.867Z,964.2
2024-05-09T02:48:57.477Z,964.13
2024-05-09T02:51:58.323Z,964.2
2024-05-09T02:54:58.209Z,964.21
2024-05-09T02:57:57.144Z,964.14
2024-05-09T03:00:57.689Z,964.21
2024-05-09T03:03:57.220Z,964.19
2024-05-09T03:06:56.818Z,964.14
2024-05-09T03:09:58.144Z,964.1
2024-05-09T03:12:57.282Z,964.14
2024-05-09T03:15:57.052Z,964.11
2024-05-09T03:18:57.689Z,964.19
2024-05-09T03:21:58.000Z,964.1
2024-05-09T03:24:58.061Z,964.05
2024-05-09T03:27:57.289Z,964.19
2024-05-09T03:30:57.375Z,964.19
2024-05-09T03:33:57.933Z,964.22
2024-05-09T03:36:57.950Z,964.25
2024-05-09T03:39:58.212Z,964.3
2024-05-09T03:42:57.602Z,964.25
2024-05-09T03:45:57.566Z,964.29
2024-05-09T03:48:57.082Z,964.13
2024-05-09T03:51:57.662Z,964.1
2024-05-09T03:54:57.553Z,964.16
2024-05-09T03:57:57.575Z,964.1
2024-05-09T04:00:57.982Z,964.18
2024-05-09T04:03:57.854Z,964.13
2024-05-09T04:06:57.807Z,964.18
2024-05-09T04:09:57.637Z,964.21
2024-05-09T04:12:57.755Z,964.18
2024-05-09T04:15:57.640Z,964.18
2024-05-09T04:18:57.950Z,964.43
2024-05-09T04:21:57.279Z,964.33
2024-05-09T04:24:57.484Z,964.35
2024-05-09T04:27:58.506Z,964.36
2024-05-09T04:30:58.381Z,964.42
2024-05-09T04:33:57.115Z,964.39
2024-05-09T04:36:57.902Z,964.37
2024-05-09T04:39:57.006Z,964.43
2024-05-09T04:42:57.556Z,964.38
2024-05-09T04:45:58.166Z,964.42
2024-05-09T04:48:58.309Z,964.45
2024-05-09T04:51:58.161Z,964.48
2024-05-09T04:54:58.945Z,964.46
2024-05-09T04:57:58.232Z,964.43
2024-05-09T05:00:58.614Z,964.42
2024-05-09T05:03:57.891Z,964.45
2024-05-09T05:06:59.755Z,964.43
2024-05-09T05:09:58.914Z,964.4
2024-05-09T05:12:57.576Z,964.32
2024-05-09T05:15:58.931Z,964.39
2024-05-09T05:18:57.798Z,964.35
2024-05-09T05:21:58.053Z,964.33
2024-05-09T05:24:58.382Z,964.36
2024-05-09T05:27:58.012Z,964.39
2024-05-09T05:30:59.298Z,964.33
2024-05-09T05:33:58.120Z,964.46
2024-05-09T05:36:57.381Z,964.46
2024-05-09T05:39:57.689Z,964.43
2024-05-09T05:42:58.441Z,964.39
2024-05-09T05:45:58.416Z,964.38
2024-05-09T05:48:58.699Z,964.49
2024-05-09T05:51:58.270Z,964.47
2024-05-09T05:54:58.288Z,964.53
2024-05-09T05:57:58.156Z,964.5
2024-05-09T06:00:58.600Z,964.57
2024-05-09T06:03:58.236Z,964.5
2024-05-09T06:06:58.336Z,964.45
2024-05-09T06:09:59.051Z,964.41
2024-05-09T06:12:57.727Z,964.48
2024-05-09T06:15:58.001Z,964.49
2024-05-09T06:18:57.970Z,964.52
2024-05-09T06:21:57.888Z,964.48
2024-05-09T06:24:58.006Z,964.48
2024-05-09T06:27:57.858Z,964.54
2024-05-09T06:30:57.921Z,964.51
2024-05-09T06:33:57.520Z,964.52
2024-05-09T06:36:57.312Z,964.52
2024-05-09T06:39:57.728Z,964.48
2024-05-09T06:42:57.849Z,964.36
2024-05-09T06:45:57.595Z,964.4
2024-05-09T06:48:57.221Z,964.4
2024-05-09T06:51:57.457Z,964.4
2024-05-09T06:54:58.036Z,964.35
2024-05-09T06:57:56.929Z,964.46
2024-05-09T07:00:57.687Z,964.46
2024-05-09T07:03:57.437Z,964.47
2024-05-09T07:06:57.297Z,964.48
2024-05-09T07:09:58.281Z,964.46
2024-05-09T07:12:57.644Z,964.52
2024-05-09T07:15:57.520Z,964.5
2024-05-09T07:18:57.082Z,964.47
2024-05-09T07:21:57.539Z,964.58
2024-05-09T07:24:57.666Z,964.47
2024-05-09T07:27:57.938Z,964.47
2024-05-09T07:30:58.074Z,964.5
2024-05-09T07:33:57.901Z,964.49
2024-05-09T07:36:57.627Z,964.4
2024-05-09T07:39:57.510Z,964.42
2024-05-09T07:42:56.805Z,964.43
2024-05-09T07:46:00.938Z,964.39
2024-05-09T07:53:21.982Z,964.4
2024-05-09T07:54:57.723Z,964.43
2024-05-09T07:57:57.214Z,964.42
2024-05-09T08:00:58.349Z,964.36
2024-05-09T08:03:57.833Z,964.41
2024-05-09T08:06:57.420Z,964.36
2024-05-09T08:09:58.146Z,964.31
2024-05-09T08:12:57.358Z,964.28
2024-05-09T08:15:57.588Z,964.33
2024-05-09T08:18:58.078Z,964.44
2024-05-09T08:21:57.772Z,964.38
2024-05-09T08:24:57.775Z,964.4
2024-05-09T08:27:57.219Z,964.34
2024-05-09T08:30:58.316Z,964.28
2024-05-09T08:33:57.159Z,964.27
2024-05-09T08:37:01.779Z,964.28
2024-05-09T08:39:58.224Z,964.22
2024-05-09T08:42:58.087Z,964.18
2024-05-09T08:45:58.217Z,964.2
2024-05-09T08:48:58.019Z,964.21
2024-05-09T08:51:57.549Z,964.22
2024-05-09T08:54:57.688Z,964.25
2024-05-09T08:57:58.473Z,964.18
2024-05-09T09:00:58.329Z,964.25
2024-05-09T09:03:57.760Z,964.16
2024-05-09T09:06:59.216Z,964.17
2024-05-09T09:09:57.690Z,964.17
2024-05-09T09:12:57.116Z,964.18
2024-05-09T09:15:58.642Z,964.23
2024-05-09T09:18:57.903Z,964.27
2024-05-09T09:21:57.892Z,964.25
2024-05-09T09:24:57.878Z,964.28
2024-05-09T09:27:57.367Z,964.32
2024-05-09T09:30:58.296Z,964.43
2024-05-09T09:33:58.175Z,964.44
2024-05-09T09:36:57.553Z,964.36
2024-05-09T09:39:57.593Z,964.34
2024-05-09T09:42:58.005Z,964.33
2024-05-09T09:45:58.179Z,964.14
2024-05-09T09:48:58.372Z,964.3
2024-05-09T09:51:58.229Z,964.32
2024-05-09T09:54:58.091Z,964.26
2024-05-09T09:57:57.385Z,964.26
2024-05-09T10:00:58.120Z,964.25
2024-05-09T10:03:56.992Z,964.27
2024-05-09T10:06:57.458Z,964.3
2024-05-09T10:09:57.448Z,964.27
2024-05-09T10:12:58.155Z,964.26
2024-05-09T10:15:58.299Z,964.27
2024-05-09T10:18:57.315Z,964.29
2024-05-09T10:21:57.739Z,964.21
2024-05-09T10:24:57.073Z,964.25
2024-05-09T10:27:57.771Z,964.26
2024-05-09T10:30:57.523Z,964.17
2024-05-09T10:33:57.258Z,964.14
2024-05-09T10:36:58.061Z,964.18
2024-05-09T10:39:57.886Z,964.16
2024-05-09T10:42:57.159Z,964.2
2024-05-09T10:45:58.218Z,964.12
2024-05-09T10:48:58.153Z,964.12
2024-05-09T10:51:57.953Z,964.05
2024-05-09T10:54:57.346Z,964.04
2024-05-09T10:57:58.031Z,964.12
2024-05-09T11:00:58.347Z,964.06
2024-05-09T11:04:16.829Z,964.1
2024-05-09T11:06:57.178Z,963.89
2024-05-09T11:09:58.435Z,963.95
2024-05-09T11:12:58.035Z,963.86
2024-05-09T11:15:57.883Z,963.92
2024-05-09T11:18:58.108Z,963.86
2024-05-09T11:21:58.021Z,963.92
2024-05-09T11:24:58.192Z,963.83
2024-05-09T11:27:57.392Z,963.78
2024-05-09T11:30:57.258Z,963.87
2024-05-09T11:33:57.423Z,963.81
2024-05-09T11:36:58.235Z,963.78
2024-05-09T11:39:58.079Z,963.74
2024-05-09T11:42:57.857Z,963.72
2024-05-09T11:45:57.815Z,963.76
2024-05-09T11:48:57.699Z,963.67
2024-05-09T11:51:57.103Z,963.63
2024-05-09T11:54:57.982Z,963.62
2024-05-09T11:57:57.731Z,963.69
2024-05-09T12:00:57.622Z,963.59
2024-05-09T12:03:57.402Z,963.61
2024-05-09T12:06:58.303Z,963.61
2024-05-09T12:09:57.884Z,963.5
2024-05-09T12:12:57.089Z,963.64
2024-05-09T12:15:57.995Z,963.59
2024-05-09T12:18:57.785Z,963.59
2024-05-09T12:21:57.497Z,963.43
2024-05-09T12:24:57.221Z,963.37
2024-05-09T12:27:57.442Z,963.41
2024-05-09T12:30:57.883Z,963.34
2024-05-09T12:33:57.893Z,963.51
2024-05-09T12:36:57.505Z,963.38
2024-05-09T12:39:57.759Z,963.36
2024-05-09T12:42:57.202Z,963.47
2024-05-09T12:45:57.890Z,963.38
2024-05-09T12:48:57.335Z,963.4
2024-05-09T12:51:57.535Z,963.43
2024-05-09T12:54:58.059Z,963.33
2024-05-09T12:57:57.994Z,963.32
2024-05-09T13:00:58.576Z,963.27
2024-05-09T13:03:57.442Z,963.19
2024-05-09T13:06:57.590Z,963.2
2024-05-09T13:09:57.828Z,963.25
2024-05-09T13:12:58.288Z,963.18
2024-05-09T13:15:57.324Z,963.18
2024-05-09T13:18:57.589Z,963.22
2024-05-09T13:21:58.204Z,963.15
2024-05-09T13:24:57.851Z,963.18
2024-05-09T13:27:58.215Z,963.06
2024-05-09T13:30:58.555Z,963.06
2024-05-09T13:33:57.889Z,962.93
2024-05-09T13:36:58.588Z,962.98
2024-05-09T13:39:58.646Z,962.96
2024-05-09T13:42:57.597Z,962.95
2024-05-09T13:45:58.429Z,962.93
2024-05-09T13:48:57.872Z,962.84
2024-05-09T13:51:57.768Z,962.89
2024-05-09T13:54:57.919Z,962.92
2024-05-09T13:57:58.344Z,962.92
2024-05-09T14:00:57.811Z,962.78
2024-05-09T14:03:58.894Z,962.72
2024-05-09T14:06:57.863Z,962.59
2024-05-09T14:09:58.007Z,962.71
2024-05-09T14:12:57.062Z,962.75
2024-05-09T14:15:57.641Z,962.72
2024-05-09T14:18:57.332Z,962.68
2024-05-09T14:21:57.385Z,962.6
2024-05-09T14:24:57.604Z,962.64
2024-05-09T14:27:58.552Z,962.61
2024-05-09T14:30:57.880Z,962.58
2024-05-09T14:33:58.355Z,962.54
2024-05-09T14:36:58.179Z,962.64
2024-05-09T14:39:57.670Z,962.5
2024-05-09T14:42:59.697Z,962.6
2024-05-09T14:45:58.028Z,962.54
2024-05-09T14:48:57.511Z,962.42
2024-05-09T14:51:57.076Z,962.39
2024-05-09T14:55:00.583Z,962.38
2024-05-09T14:57:58.138Z,962.38
2024-05-09T15:00:58.701Z,962.34
2024-05-09T15:03:58.088Z,962.32
2024-05-09T15:06:57.735Z,962.39
2024-05-09T15:09:57.541Z,962.34
2024-05-09T15:12:57.016Z,962.22
2024-05-09T15:15:57.750Z,962.13
2024-05-09T15:18:57.732Z,962.16
2024-05-09T15:21:57.696Z,962.11
2024-05-09T15:24:57.482Z,962.11
2024-05-09T15:27:57.569Z,962.1
2024-05-09T15:30:58.521Z,962.08
2024-05-09T15:33:57.454Z,962.1
2024-05-09T15:36:58.845Z,962.0
2024-05-09T15:39:58.809Z,962.03
2024-05-09T15:42:58.908Z,962.05
2024-05-09T15:45:59.672Z,961.98
2024-05-09T15:48:58.500Z,961.9
2024-05-09T15:51:58.672Z,961.88
2024-05-09T15:54:58.187Z,961.88
2024-05-09T15:57:58.862Z,961.91
2024-05-09T16:01:00.255Z,961.96
2024-05-09T16:03:58.228Z,961.95
2024-05-09T16:06:59.416Z,962.02
2024-05-09T16:09:58.954Z,961.96
2024-05-09T16:12:58.811Z,962.0
2024-05-09T16:15:58.315Z,962.0
2024-05-09T16:18:59.198Z,961.95
2024-05-09T16:22:11.456Z,961.91
2024-05-09T16:24:59.763Z,961.94
2024-05-09T16:27:58.727Z,961.87
2024-05-09T16:30:59.242Z,961.93
2024-05-09T16:33:58.875Z,961.93
2024-05-09T16:36:59.177Z,961.91
2024-05-09T16:39:58.645Z,961.93
2024-05-09T16:42:59.829Z,961.91
2024-05-09T16:45:59.414Z,961.93
2024-05-09T16:48:58.918Z,961.85
2024-05-09T16:51:58.257Z,961.8
2024-05-09T16:54:58.848Z,961.79
2024-05-09T16:57:59.220Z,961.73
2024-05-09T17:00:59.994Z,961.82
2024-05-09T17:03:58.396Z,961.8
2024-05-09T17:06:58.259Z,961.73
2024-05-09T17:09:58.486Z,961.78
2024-05-09T17:12:58.547Z,961.72
2024-05-09T17:15:59.226Z,961.69
2024-05-09T17:18:57.672Z,961.69
2024-05-09T17:21:59.554Z,961.71
2024-05-09T17:24:58.302Z,961.68
2024-05-09T17:27:58.935Z,961.77
2024-05-09T17:30:58.605Z,961.67
2024-05-09T17:33:58.795Z,961.7
2024-05-09T17:36:58.468Z,961.62
2024-05-09T17:39:59.397Z,961.74
2024-05-09T17:42:59.063Z,961.67
2024-05-09T17:45:59.122Z,961.74
2024-05-09T17:49:00.426Z,961.8
2024-05-09T17:51:58.506Z,961.77
2024-05-09T17:54:57.824Z,961.77
2024-05-09T17:57:59.185Z,961.8
2024-05-09T18:00:59.072Z,961.82
2024-05-09T18:03:58.792Z,961.82
2024-05-09T18:06:59.040Z,961.85
2024-05-09T18:09:58.520Z,961.79
2024-05-09T18:12:57.922Z,961.78
2024-05-09T18:15:59.268Z,961.77
2024-05-09T18:18:57.514Z,961.74
2024-05-09T18:21:58.501Z,961.74
2024-05-09T18:24:58.400Z,961.76
2024-05-09T18:27:58.528Z,961.76
2024-05-09T18:30:58.382Z,961.85
2024-05-09T18:33:58.368Z,961.86
2024-05-09T18:37:01.557Z,961.83
2024-05-09T18:39:58.904Z,961.83
2024-05-09T18:42:57.935Z,961.94
2024-05-09T18:45:58.910Z,961.89
2024-05-09T18:48:58.482Z,961.94
2024-05-09T18:51:58.211Z,961.98
2024-05-09T18:54:58.343Z,961.91
2024-05-09T18:57:57.156Z,961.92
2024-05-09T19:01:26.690Z,961.88
2024-05-09T19:03:58.386Z,961.97
2024-05-09T19:06:58.424Z,962.02
2024-05-09T19:09:58.439Z,962.02
2024-05-09T19:12:58.412Z,962.08
2024-05-09T19:15:58.049Z,962.05
2024-05-09T19:18:58.712Z,962.08
2024-05-09T19:21:57.910Z,962.17
2024-05-09T19:24:58.600Z,962.08
2024-05-09T19:27:58.260Z,962.18
2024-05-09T19:30:58.906Z,962.17
2024-05-09T19:33:58.269Z,962.17
2024-05-09T19:36:58.563Z,962.2
2024-05-09T19:39:58.452Z,962.32
2024-05-09T19:42:58.831Z,962.32
2024-05-09T19:45:58.274Z,962.32
2024-05-09T19:48:58.744Z,962.29
2024-05-09T19:51:59.013Z,962.35
2024-05-09T19:54:58.435Z,962.29
2024-05-09T19:57:59.052Z,962.22
2024-05-09T20:00:58.759Z,962.23
2024-05-09T20:03:58.388Z,962.35
2024-05-09T20:06:58.261Z,962.36
2024-05-09T20:09:58.020Z,962.32
2024-05-09T20:12:57.900Z,962.41
2024-05-09T20:15:57.997Z,962.41
2024-05-09T20:18:57.565Z,962.39
2024-05-09T20:21:57.641Z,962.37
2024-05-09T20:24:57.947Z,962.41
2024-05-09T20:27:57.891Z,962.42
2024-05-09T20:30:58.214Z,962.38
2024-05-09T20:33:58.769Z,962.3
2024-05-09T20:36:58.611Z,962.38
2024-05-09T20:39:58.529Z,962.37
2024-05-09T20:42:57.478Z,962.23
2024-05-09T20:45:58.562Z,962.33
2024-05-09T20:48:58.105Z,962.31
2024-05-09T20:51:58.740Z,962.36
2024-05-09T20:54:58.732Z,962.33
2024-05-09T20:57:58.057Z,962.29
2024-05-09T21:00:58.068Z,962.3
2024-05-09T21:03:58.657Z,962.3
2024-05-09T21:06:58.669Z,962.23
2024-05-09T21:09:57.854Z,962.27
2024-05-09T21:12:57.716Z,962.18
2024-05-09T21:15:58.293Z,962.15
2024-05-09T21:18:57.242Z,962.15
2024-05-09T21:21:58.115Z,962.2
2024-05-09T21:24:58.071Z,962.17
2024-05-09T21:27:58.766Z,962.18
2024-05-09T21:30:58.586Z,962.17
2024-05-09T21:33:57.609Z,962.15
2024-05-09T21:36:57.730Z,962.18
2024-05-09T21:39:58.340Z,962.15
2024-05-09T21:42:58.698Z,962.13
2024-05-09T21:45:57.914Z,962.13
2024-05-09T21:48:58.390Z,962.04
2024-05-09T21:51:58.755Z,961.98
2024-05-09T21:54:58.263Z,962.14
2024-05-09T21:57:57.798Z,962.03
2024-05-09T22:00:59.632Z,962.09
2024-05-09T22:03:57.467Z,962.07
2024-05-09T22:06:57.641Z,962.17
2024-05-09T22:09:58.501Z,962.15
2024-05-09T22:12:58.161Z,962.13
2024-05-09T22:15:58.552Z,962.16
2024-05-09T22:18:58.212Z,962.14
2024-05-09T22:21:57.800Z,962.05
2024-05-09T22:24:57.806Z,962.15
2024-05-09T22:27:57.888Z,962.14
2024-05-09T22:30:58.224Z,962.14
2024-05-09T22:33:58.569Z,962.11
2024-05-09T22:36:58.519Z,962.1
2024-05-09T22:39:58.124Z,962.18
2024-05-09T22:42:58.003Z,962.17
2024-05-09T22:45:58.260Z,962.19
2024-05-09T22:48:58.698Z,962.16
2024-05-09T22:51:57.552Z,962.19
2024-05-09T22:54:57.244Z,962.17
2024-05-09T22:57:57.817Z,962.13
2024-05-09T23:00:58.033Z,962.13
2024-05-09T23:03:58.458Z,962.13
2024-05-09T23:06:58.165Z,962.15
2024-05-09T23:09:58.222Z,962.07
2024-05-09T23:13:03.579Z,962.05
2024-05-09T23:15:58.607Z,962.03
2024-05-09T23:18:58.055Z,962.18
2024-05-09T23:21:57.971Z,962.16
2024-05-09T23:24:57.570Z,962.08
2024-05-09T23:27:58.047Z,962.06
2024-05-09T23:30:59.142Z,962.11
2024-05-09T23:33:58.291Z,961.92
2024-05-09T23:36:58.249Z,961.99
2024-05-09T23:39:57.457Z,962.01
2024-05-09T23:42:58.086Z,961.98
2024-05-09T23:45:58.791Z,961.95
2024-05-09T23:48:58.033Z,961.86
2024-05-09T23:51:58.196Z,961.92
2024-05-09T23:54:58.543Z,961.97
2024-05-09T23:57:57.675Z,961.91
